sensor_id;sensor_type;location;lat;lon;timestamp;pressure;altitude;pressure_sealevel;temperature;humidity
70488;BME280;57976;48.174;16.370;2023-06-22T00:00:50;99506.95;;;23.35;89.02
70488;BME280;57976;48.174;16.370;2023-06-22T00:02:58;99502.50;;;23.34;88.83
70488;BME280;57976;48.174;16.370;2023-06-22T00:05:03;99503.58;;;23.35;88.79
70488;BME280;57976;48.174;16.370;2023-06-22T00:07:10;99505.32;;;23.35;89.00
70488;BME280;57976;48.174;16.370;2023-06-22T00:09:15;99499.83;;;23.35;88.70
70488;BME280;57976;48.174;16.370;2023-06-22T00:11:20;99498.91;;;23.36;88.56
70488;BME280;57976;48.174;16.370;2023-06-22T00:13:25;99494.38;;;23.36;88.29
70488;BME280;57976;48.174;16.370;2023-06-22T00:15:30;99493.41;;;23.36;88.46
70488;BME280;57976;48.174;16.370;2023-06-22T00:17:35;99492.73;;;23.41;88.55
70488;BME280;57976;48.174;16.370;2023-06-22T00:19:40;99492.06;;;23.44;88.34
70488;BME280;57976;48.174;16.370;2023-06-22T00:21:47;99485.48;;;23.45;87.83
70488;BME280;57976;48.174;16.370;2023-06-22T00:23:55;99488.76;;;23.43;87.84
70488;BME280;57976;48.174;16.370;2023-06-22T00:26:00;99488.42;;;23.42;87.83
70488;BME280;57976;48.174;16.370;2023-06-22T00:28:06;99486.59;;;23.39;87.84
70488;BME280;57976;48.174;16.370;2023-06-22T00:30:14;99485.72;;;23.39;88.19
70488;BME280;57976;48.174;16.370;2023-06-22T00:32:19;99488.92;;;23.41;88.12
70488;BME280;57976;48.174;16.370;2023-06-22T00:34:30;99486.91;;;23.42;88.14
70488;BME280;57976;48.174;16.370;2023-06-22T00:36:37;99486.08;;;23.43;88.17
70488;BME280;57976;48.174;16.370;2023-06-22T00:38:42;99483.45;;;23.46;88.10
70488;BME280;57976;48.174;16.370;2023-06-22T00:40:47;99483.56;;;23.44;87.98
70488;BME280;57976;48.174;16.370;2023-06-22T00:42:55;99479.98;;;23.43;87.99
70488;BME280;57976;48.174;16.370;2023-06-22T00:45:00;99474.02;;;23.42;88.04
70488;BME280;57976;48.174;16.370;2023-06-22T00:47:06;99476.57;;;23.43;88.57
70488;BME280;57976;48.174;16.370;2023-06-22T00:49:11;99476.51;;;23.44;88.55
70488;BME280;57976;48.174;16.370;2023-06-22T00:51:16;99476.45;;;23.43;88.97
70488;BME280;57976;48.174;16.370;2023-06-22T00:53:25;99473.04;;;23.40;89.61
70488;BME280;57976;48.174;16.370;2023-06-22T00:55:31;99473.71;;;23.38;90.10
70488;BME280;57976;48.174;16.370;2023-06-22T00:57:36;99473.52;;;23.35;90.64
70488;BME280;57976;48.174;16.370;2023-06-22T00:59:42;99476.07;;;23.30;90.97
70488;BME280;57976;48.174;16.370;2023-06-22T01:04:36;99478.98;;;23.23;92.01
70488;BME280;57976;48.174;16.370;2023-06-22T01:06:49;99478.07;;;23.08;91.80
70488;BME280;57976;48.174;16.370;2023-06-22T01:09:08;99475.05;;;23.01;91.92
70488;BME280;57976;48.174;16.370;2023-06-22T01:11:20;99473.93;;;22.95;92.30
70488;BME280;57976;48.174;16.370;2023-06-22T01:13:35;99467.05;;;22.89;92.17
70488;BME280;57976;48.174;16.370;2023-06-22T01:15:43;99462.45;;;22.85;92.47
70488;BME280;57976;48.174;16.370;2023-06-22T01:17:51;99458.77;;;22.83;92.69
70488;BME280;57976;48.174;16.370;2023-06-22T01:19:57;99455.08;;;22.80;92.73
70488;BME280;57976;48.174;16.370;2023-06-22T01:22:06;99453.52;;;22.77;92.92
70488;BME280;57976;48.174;16.370;2023-06-22T01:24:22;99453.58;;;22.75;93.38
70488;BME280;57976;48.174;16.370;2023-06-22T01:26:37;99458.58;;;22.76;93.49
70488;BME280;57976;48.174;16.370;2023-06-22T01:28:47;99461.12;;;22.74;93.39
70488;BME280;57976;48.174;16.370;2023-06-22T01:31:01;99457.06;;;22.73;93.71
70488;BME280;57976;48.174;16.370;2023-06-22T01:33:06;99455.80;;;22.73;93.41
70488;BME280;57976;48.174;16.370;2023-06-22T01:35:12;99454.65;;;22.75;93.29
70488;BME280;57976;48.174;16.370;2023-06-22T01:37:18;99449.93;;;22.76;93.24
70488;BME280;57976;48.174;16.370;2023-06-22T01:39:28;99452.70;;;22.77;92.86
70488;BME280;57976;48.174;16.370;2023-06-22T01:41:36;99456.24;;;22.77;92.87
70488;BME280;57976;48.174;16.370;2023-06-22T01:43:42;99457.05;;;22.77;92.80
70488;BME280;57976;48.174;16.370;2023-06-22T01:45:48;99458.45;;;22.79;92.87
70488;BME280;57976;48.174;16.370;2023-06-22T01:47:53;99461.48;;;22.80;92.64
70488;BME280;57976;48.174;16.370;2023-06-22T01:50:01;99459.80;;;22.79;92.31
70488;BME280;57976;48.174;16.370;2023-06-22T01:52:07;99450.59;;;22.77;92.33
70488;BME280;57976;48.174;16.370;2023-06-22T01:54:12;99446.56;;;22.78;92.23
70488;BME280;57976;48.174;16.370;2023-06-22T01:56:21;99441.34;;;22.75;92.31
70488;BME280;57976;48.174;16.370;2023-06-22T01:58:30;99442.05;;;22.73;93.12
70488;BME280;57976;48.174;16.370;2023-06-22T02:00:40;99446.37;;;22.68;93.64
70488;BME280;57976;48.174;16.370;2023-06-22T02:02:53;99444.76;;;22.63;94.05
70488;BME280;57976;48.174;16.370;2023-06-22T02:05:05;99446.21;;;22.59;94.76
70488;BME280;57976;48.174;16.370;2023-06-22T02:07:18;99451.86;;;22.55;95.04
70488;BME280;57976;48.174;16.370;2023-06-22T02:09:29;99452.86;;;22.47;95.54
70488;BME280;57976;48.174;16.370;2023-06-22T02:11:38;99448.27;;;22.39;95.88
70488;BME280;57976;48.174;16.370;2023-06-22T02:13:45;99445.65;;;22.36;96.08
70488;BME280;57976;48.174;16.370;2023-06-22T02:15:52;99445.77;;;22.33;96.16
70488;BME280;57976;48.174;16.370;2023-06-22T02:17:57;99445.79;;;22.30;96.53
70488;BME280;57976;48.174;16.370;2023-06-22T02:20:07;99447.41;;;22.28;96.80
70488;BME280;57976;48.174;16.370;2023-06-22T02:22:16;99445.46;;;22.25;96.74
70488;BME280;57976;48.174;16.370;2023-06-22T02:24:22;99446.50;;;22.23;96.77
70488;BME280;57976;48.174;16.370;2023-06-22T02:26:27;99448.95;;;22.22;97.07
70488;BME280;57976;48.174;16.370;2023-06-22T02:28:33;99447.80;;;22.20;97.13
70488;BME280;57976;48.174;16.370;2023-06-22T02:30:38;99445.95;;;22.18;97.07
70488;BME280;57976;48.174;16.370;2023-06-22T02:32:44;99448.56;;;22.15;97.20
70488;BME280;57976;48.174;16.370;2023-06-22T02:34:52;99445.20;;;22.12;97.39
70488;BME280;57976;48.174;16.370;2023-06-22T02:36:57;99442.23;;;22.09;97.46
70488;BME280;57976;48.174;16.370;2023-06-22T02:39:04;99438.96;;;22.08;97.63
70488;BME280;57976;48.174;16.370;2023-06-22T02:41:09;99437.88;;;22.07;97.74
70488;BME280;57976;48.174;16.370;2023-06-22T02:43:18;99442.27;;;22.06;97.68
70488;BME280;57976;48.174;16.370;2023-06-22T02:45:24;99440.55;;;22.03;97.59
70488;BME280;57976;48.174;16.370;2023-06-22T02:47:29;99439.84;;;21.97;97.78
70488;BME280;57976;48.174;16.370;2023-06-22T02:49:38;99438.86;;;21.91;98.07
70488;BME280;57976;48.174;16.370;2023-06-22T02:51:44;99440.27;;;21.89;98.28
70488;BME280;57976;48.174;16.370;2023-06-22T02:53:49;99438.33;;;21.89;98.41
70488;BME280;57976;48.174;16.370;2023-06-22T02:55:57;99438.65;;;21.89;98.52
70488;BME280;57976;48.174;16.370;2023-06-22T02:58:05;99439.95;;;21.91;98.36
70488;BME280;57976;48.174;16.370;2023-06-22T03:00:15;99436.91;;;21.93;98.22
70488;BME280;57976;48.174;16.370;2023-06-22T03:02:20;99431.39;;;21.94;97.88
70488;BME280;57976;48.174;16.370;2023-06-22T03:04:25;99434.26;;;21.95;98.20
70488;BME280;57976;48.174;16.370;2023-06-22T03:06:30;99438.98;;;21.95;98.28
70488;BME280;57976;48.174;16.370;2023-06-22T03:08:35;99436.70;;;21.94;98.37
70488;BME280;57976;48.174;16.370;2023-06-22T03:10:40;99440.33;;;21.94;98.39
70488;BME280;57976;48.174;16.370;2023-06-22T03:12:45;99438.59;;;21.92;98.47
70488;BME280;57976;48.174;16.370;2023-06-22T03:14:52;99439.25;;;21.92;98.41
70488;BME280;57976;48.174;16.370;2023-06-22T03:16:57;99439.23;;;21.91;98.46
70488;BME280;57976;48.174;16.370;2023-06-22T03:19:01;99440.33;;;21.92;98.41
70488;BME280;57976;48.174;16.370;2023-06-22T03:21:06;99445.87;;;21.92;98.15
70488;BME280;57976;48.174;16.370;2023-06-22T03:23:14;99444.98;;;21.90;98.24
70488;BME280;57976;48.174;16.370;2023-06-22T03:25:19;99451.61;;;21.90;98.43
70488;BME280;57976;48.174;16.370;2023-06-22T03:27:25;99450.64;;;21.87;98.62
70488;BME280;57976;48.174;16.370;2023-06-22T03:29:29;99447.92;;;21.85;98.93
70488;BME280;57976;48.174;16.370;2023-06-22T03:31:36;99444.07;;;21.84;98.72
70488;BME280;57976;48.174;16.370;2023-06-22T03:33:44;99437.84;;;21.87;98.81
70488;BME280;57976;48.174;16.370;2023-06-22T03:35:49;99436.96;;;21.91;98.75
70488;BME280;57976;48.174;16.370;2023-06-22T03:37:53;99439.30;;;21.92;98.55
70488;BME280;57976;48.174;16.370;2023-06-22T03:39:58;99440.81;;;21.88;98.41
70488;BME280;57976;48.174;16.370;2023-06-22T03:42:06;99443.68;;;21.83;98.40
70488;BME280;57976;48.174;16.370;2023-06-22T03:44:11;99445.50;;;21.79;98.33
70488;BME280;57976;48.174;16.370;2023-06-22T03:46:19;99444.86;;;21.76;98.31
70488;BME280;57976;48.174;16.370;2023-06-22T03:48:26;99443.23;;;21.74;98.22
70488;BME280;57976;48.174;16.370;2023-06-22T03:50:31;99446.48;;;21.70;98.23
70488;BME280;57976;48.174;16.370;2023-06-22T03:52:36;99447.98;;;21.65;98.09
70488;BME280;57976;48.174;16.370;2023-06-22T03:54:42;99450.10;;;21.65;98.27
70488;BME280;57976;48.174;16.370;2023-06-22T03:56:47;99451.08;;;21.66;98.32
70488;BME280;57976;48.174;16.370;2023-06-22T03:58:54;99447.84;;;21.69;98.21
70488;BME280;57976;48.174;16.370;2023-06-22T04:01:02;99450.33;;;21.74;97.96
70488;BME280;57976;48.174;16.370;2023-06-22T04:03:07;99446.16;;;21.77;97.48
70488;BME280;57976;48.174;16.370;2023-06-22T04:05:15;99445.94;;;21.78;97.37
70488;BME280;57976;48.174;16.370;2023-06-22T04:07:23;99448.38;;;21.79;97.00
70488;BME280;57976;48.174;16.370;2023-06-22T04:09:28;99446.21;;;21.79;96.93
70488;BME280;57976;48.174;16.370;2023-06-22T04:11:36;99442.68;;;21.81;96.97
70488;BME280;57976;48.174;16.370;2023-06-22T04:13:40;99436.45;;;21.82;96.88
70488;BME280;57976;48.174;16.370;2023-06-22T04:15:45;99438.48;;;21.84;96.95
70488;BME280;57976;48.174;16.370;2023-06-22T04:17:50;99432.41;;;21.87;96.93
70488;BME280;57976;48.174;16.370;2023-06-22T04:19:55;99432.24;;;21.92;96.85
70488;BME280;57976;48.174;16.370;2023-06-22T04:22:00;99427.14;;;21.98;96.79
70488;BME280;57976;48.174;16.370;2023-06-22T04:24:06;99423.34;;;22.05;96.49
70488;BME280;57976;48.174;16.370;2023-06-22T04:26:12;99422.46;;;22.11;96.31
70488;BME280;57976;48.174;16.370;2023-06-22T04:28:16;99417.46;;;22.19;95.99
70488;BME280;57976;48.174;16.370;2023-06-22T04:30:21;99410.73;;;22.24;95.62
70488;BME280;57976;48.174;16.370;2023-06-22T04:32:29;99410.32;;;22.32;95.52
70488;BME280;57976;48.174;16.370;2023-06-22T04:34:34;99414.20;;;22.41;95.27
70488;BME280;57976;48.174;16.370;2023-06-22T04:36:40;99415.22;;;22.50;95.01
70488;BME280;57976;48.174;16.370;2023-06-22T04:38:45;99419.55;;;22.58;94.76
70488;BME280;57976;48.174;16.370;2023-06-22T04:40:50;99421.98;;;22.66;94.40
70488;BME280;57976;48.174;16.370;2023-06-22T04:42:56;99428.80;;;22.75;94.02
70488;BME280;57976;48.174;16.370;2023-06-22T04:45:01;99431.29;;;22.81;93.99
70488;BME280;57976;48.174;16.370;2023-06-22T04:47:07;99428.26;;;22.89;94.25
70488;BME280;57976;48.174;16.370;2023-06-22T04:49:12;99431.38;;;22.94;94.85
70488;BME280;57976;48.174;16.370;2023-06-22T04:51:17;99430.45;;;22.97;95.00
70488;BME280;57976;48.174;16.370;2023-06-22T04:53:22;99434.84;;;22.98;94.87
70488;BME280;57976;48.174;16.370;2023-06-22T04:55:27;99441.42;;;22.97;94.90
70488;BME280;57976;48.174;16.370;2023-06-22T04:57:34;99443.06;;;22.95;94.79
70488;BME280;57976;48.174;16.370;2023-06-22T04:59:40;99441.66;;;22.94;94.66
70488;BME280;57976;48.174;16.370;2023-06-22T05:01:45;99445.73;;;22.94;94.36
70488;BME280;57976;48.174;16.370;2023-06-22T05:03:51;99448.05;;;22.96;94.06
70488;BME280;57976;48.174;16.370;2023-06-22T05:06:00;99453.21;;;22.98;93.96
70488;BME280;57976;48.174;16.370;2023-06-22T05:08:05;99454.99;;;23.02;93.82
70488;BME280;57976;48.174;16.370;2023-06-22T05:10:11;99452.13;;;23.08;93.56
70488;BME280;57976;48.174;16.370;2023-06-22T05:12:16;99447.90;;;23.10;93.34
70488;BME280;57976;48.174;16.370;2023-06-22T05:14:21;99453.95;;;23.14;93.22
70488;BME280;57976;48.174;16.370;2023-06-22T05:16:26;99459.30;;;23.21;92.82
70488;BME280;57976;48.174;16.370;2023-06-22T05:18:30;99460.73;;;23.28;92.46
70488;BME280;57976;48.174;16.370;2023-06-22T05:20:40;99460.06;;;23.33;91.79
70488;BME280;57976;48.174;16.370;2023-06-22T05:22:44;99455.77;;;23.35;91.67
70488;BME280;57976;48.174;16.370;2023-06-22T05:24:49;99451.78;;;23.40;91.49
70488;BME280;57976;48.174;16.370;2023-06-22T05:26:54;99458.07;;;23.44;91.12
70488;BME280;57976;48.174;16.370;2023-06-22T05:29:01;99455.48;;;23.47;90.83
70488;BME280;57976;48.174;16.370;2023-06-22T05:31:06;99454.18;;;23.47;90.90
70488;BME280;57976;48.174;16.370;2023-06-22T05:33:11;99452.31;;;23.51;90.77
70488;BME280;57976;48.174;16.370;2023-06-22T05:35:15;99450.52;;;23.58;90.43
70488;BME280;57976;48.174;16.370;2023-06-22T05:37:20;99448.94;;;23.67;89.80
70488;BME280;57976;48.174;16.370;2023-06-22T05:39:25;99446.92;;;23.74;89.52
70488;BME280;57976;48.174;16.370;2023-06-22T05:41:30;99438.93;;;23.81;88.85
70488;BME280;57976;48.174;16.370;2023-06-22T05:43:36;99441.21;;;23.82;88.43
70488;BME280;57976;48.174;16.370;2023-06-22T05:45:45;99440.91;;;23.84;88.20
70488;BME280;57976;48.174;16.370;2023-06-22T05:47:49;99444.20;;;23.89;88.43
70488;BME280;57976;48.174;16.370;2023-06-22T05:49:54;99443.58;;;23.97;88.52
70488;BME280;57976;48.174;16.370;2023-06-22T05:51:59;99442.17;;;24.03;88.27
70488;BME280;57976;48.174;16.370;2023-06-22T05:54:04;99439.41;;;24.09;88.07
70488;BME280;57976;48.174;16.370;2023-06-22T05:56:10;99438.61;;;24.15;87.57
70488;BME280;57976;48.174;16.370;2023-06-22T05:58:15;99437.77;;;24.19;87.74
70488;BME280;57976;48.174;16.370;2023-06-22T06:00:21;99442.94;;;24.24;87.55
70488;BME280;57976;48.174;16.370;2023-06-22T06:02:26;99438.36;;;24.29;87.71
70488;BME280;57976;48.174;16.370;2023-06-22T06:04:31;99436.48;;;24.33;87.59
70488;BME280;57976;48.174;16.370;2023-06-22T06:06:39;99444.44;;;24.38;87.61
70488;BME280;57976;48.174;16.370;2023-06-22T06:08:44;99449.38;;;24.40;87.18
70488;BME280;57976;48.174;16.370;2023-06-22T06:10:49;99457.09;;;24.41;86.69
70488;BME280;57976;48.174;16.370;2023-06-22T06:12:53;99455.86;;;24.45;86.17
70488;BME280;57976;48.174;16.370;2023-06-22T06:14:58;99456.89;;;24.46;86.15
70488;BME280;57976;48.174;16.370;2023-06-22T06:17:03;99458.64;;;24.45;86.25
70488;BME280;57976;48.174;16.370;2023-06-22T06:19:08;99458.23;;;24.47;86.07
70488;BME280;57976;48.174;16.370;2023-06-22T06:21:13;99457.11;;;24.49;86.54
70488;BME280;57976;48.174;16.370;2023-06-22T06:23:17;99455.98;;;24.53;87.18
70488;BME280;57976;48.174;16.370;2023-06-22T06:25:22;99454.41;;;24.52;87.20
70488;BME280;57976;48.174;16.370;2023-06-22T06:27:28;99461.34;;;24.57;87.59
70488;BME280;57976;48.174;16.370;2023-06-22T06:29:33;99464.11;;;24.67;87.80
70488;BME280;57976;48.174;16.370;2023-06-22T06:31:41;99468.12;;;24.76;87.18
70488;BME280;57976;48.174;16.370;2023-06-22T06:33:46;99466.86;;;24.84;86.67
70488;BME280;57976;48.174;16.370;2023-06-22T06:35:51;99462.84;;;24.91;86.20
70488;BME280;57976;48.174;16.370;2023-06-22T06:37:55;99462.54;;;24.94;85.84
70488;BME280;57976;48.174;16.370;2023-06-22T06:40:02;99465.48;;;24.99;86.08
70488;BME280;57976;48.174;16.370;2023-06-22T06:42:10;99468.64;;;25.12;86.04
70488;BME280;57976;48.174;16.370;2023-06-22T06:44:15;99464.59;;;25.25;84.87
70488;BME280;57976;48.174;16.370;2023-06-22T06:46:22;99458.55;;;25.31;84.50
70488;BME280;57976;48.174;16.370;2023-06-22T06:48:27;99450.87;;;25.38;84.77
70488;BME280;57976;48.174;16.370;2023-06-22T06:50:32;99449.69;;;25.42;84.65
70488;BME280;57976;48.174;16.370;2023-06-22T06:52:37;99438.38;;;25.47;84.45
70488;BME280;57976;48.174;16.370;2023-06-22T06:54:45;99434.70;;;25.57;84.08
70488;BME280;57976;48.174;16.370;2023-06-22T06:56:50;99437.94;;;25.70;83.74
70488;BME280;57976;48.174;16.370;2023-06-22T06:58:55;99432.65;;;25.73;83.48
70488;BME280;57976;48.174;16.370;2023-06-22T07:01:00;99430.17;;;25.78;83.72
70488;BME280;57976;48.174;16.370;2023-06-22T07:03:05;99432.34;;;25.79;82.27
70488;BME280;57976;48.174;16.370;2023-06-22T07:05:11;99438.18;;;25.78;82.82
70488;BME280;57976;48.174;16.370;2023-06-22T07:07:17;99439.73;;;25.84;82.55
70488;BME280;57976;48.174;16.370;2023-06-22T07:09:21;99437.81;;;25.90;82.62
70488;BME280;57976;48.174;16.370;2023-06-22T07:11:29;99433.63;;;25.99;81.94
70488;BME280;57976;48.174;16.370;2023-06-22T07:13:34;99435.70;;;26.03;81.64
70488;BME280;57976;48.174;16.370;2023-06-22T07:15:39;99428.07;;;26.02;81.60
70488;BME280;57976;48.174;16.370;2023-06-22T07:17:43;99429.85;;;25.99;82.31
70488;BME280;57976;48.174;16.370;2023-06-22T07:19:49;99429.06;;;26.00;82.00
70488;BME280;57976;48.174;16.370;2023-06-22T07:21:54;99429.32;;;26.06;82.11
70488;BME280;57976;48.174;16.370;2023-06-22T07:23:59;99428.20;;;26.14;82.30
70488;BME280;57976;48.174;16.370;2023-06-22T07:26:04;99428.23;;;26.25;81.75
70488;BME280;57976;48.174;16.370;2023-06-22T07:28:10;99426.58;;;26.31;81.86
70488;BME280;57976;48.174;16.370;2023-06-22T07:30:18;99428.92;;;26.38;81.22
70488;BME280;57976;48.174;16.370;2023-06-22T07:32:23;99426.05;;;26.37;81.22
70488;BME280;57976;48.174;16.370;2023-06-22T07:34:29;99426.69;;;26.38;81.58
70488;BME280;57976;48.174;16.370;2023-06-22T07:36:34;99425.46;;;26.42;81.04
70488;BME280;57976;48.174;16.370;2023-06-22T07:38:39;99431.77;;;26.41;81.00
70488;BME280;57976;48.174;16.370;2023-06-22T07:40:44;99434.98;;;26.36;81.28
70488;BME280;57976;48.174;16.370;2023-06-22T07:42:49;99435.13;;;26.33;81.17
70488;BME280;57976;48.174;16.370;2023-06-22T07:44:55;99435.88;;;26.38;81.32
70488;BME280;57976;48.174;16.370;2023-06-22T07:46:59;99437.53;;;26.43;81.40
70488;BME280;57976;48.174;16.370;2023-06-22T07:49:04;99439.63;;;26.50;81.39
70488;BME280;57976;48.174;16.370;2023-06-22T07:51:12;99433.86;;;26.57;81.07
70488;BME280;57976;48.174;16.370;2023-06-22T07:53:17;99432.45;;;26.65;81.19
70488;BME280;57976;48.174;16.370;2023-06-22T07:55:22;99428.85;;;26.73;80.73
70488;BME280;57976;48.174;16.370;2023-06-22T07:57:28;99423.91;;;26.75;80.23
70488;BME280;57976;48.174;16.370;2023-06-22T07:59:32;99423.20;;;26.75;80.09
70488;BME280;57976;48.174;16.370;2023-06-22T08:01:40;99422.55;;;26.76;79.51
70488;BME280;57976;48.174;16.370;2023-06-22T08:03:45;99420.63;;;26.77;79.74
70488;BME280;57976;48.174;16.370;2023-06-22T08:05:53;99424.56;;;26.83;79.55
70488;BME280;57976;48.174;16.370;2023-06-22T08:07:58;99425.45;;;26.85;79.39
70488;BME280;57976;48.174;16.370;2023-06-22T08:10:02;99420.50;;;26.94;79.27
70488;BME280;57976;48.174;16.370;2023-06-22T08:12:13;99426.53;;;27.04;77.98
70488;BME280;57976;48.174;16.370;2023-06-22T08:14:18;99421.86;;;27.08;77.63
70488;BME280;57976;48.174;16.370;2023-06-22T08:16:23;99424.41;;;27.12;77.29
70488;BME280;57976;48.174;16.370;2023-06-22T08:18:28;99421.77;;;27.13;77.12
70488;BME280;57976;48.174;16.370;2023-06-22T08:20:33;99421.05;;;27.15;77.39
70488;BME280;57976;48.174;16.370;2023-06-22T08:22:37;99421.23;;;27.22;77.70
70488;BME280;57976;48.174;16.370;2023-06-22T08:24:43;99424.77;;;27.32;76.98
70488;BME280;57976;48.174;16.370;2023-06-22T08:26:50;99425.77;;;27.40;76.19
70488;BME280;57976;48.174;16.370;2023-06-22T08:28:55;99429.59;;;27.52;75.43
70488;BME280;57976;48.174;16.370;2023-06-22T08:31:01;99430.29;;;27.62;74.27
70488;BME280;57976;48.174;16.370;2023-06-22T08:33:09;99425.48;;;27.70;73.34
70488;BME280;57976;48.174;16.370;2023-06-22T08:35:18;99426.30;;;27.73;72.10
70488;BME280;57976;48.174;16.370;2023-06-22T08:37:24;99424.09;;;27.78;72.79
70488;BME280;57976;48.174;16.370;2023-06-22T08:39:29;99420.89;;;27.90;72.41
70488;BME280;57976;48.174;16.370;2023-06-22T08:41:34;99419.64;;;28.02;70.96
70488;BME280;57976;48.174;16.370;2023-06-22T08:43:39;99416.60;;;28.08;70.83
70488;BME280;57976;48.174;16.370;2023-06-22T08:45:44;99418.14;;;28.15;70.38
70488;BME280;57976;48.174;16.370;2023-06-22T08:47:55;99409.77;;;28.21;70.33
70488;BME280;57976;48.174;16.370;2023-06-22T08:50:04;99408.26;;;28.28;70.11
70488;BME280;57976;48.174;16.370;2023-06-22T08:52:10;99402.66;;;28.37;69.57
70488;BME280;57976;48.174;16.370;2023-06-22T08:54:15;99406.31;;;28.43;68.97
70488;BME280;57976;48.174;16.370;2023-06-22T08:56:20;99402.86;;;28.41;67.94
70488;BME280;57976;48.174;16.370;2023-06-22T08:58:25;99402.52;;;28.41;69.28
70488;BME280;57976;48.174;16.370;2023-06-22T09:00:33;99400.84;;;28.53;69.21
70488;BME280;57976;48.174;16.370;2023-06-22T09:02:37;99401.58;;;28.65;68.03
70488;BME280;57976;48.174;16.370;2023-06-22T09:04:42;99401.63;;;28.71;67.94
70488;BME280;57976;48.174;16.370;2023-06-22T09:06:48;99398.92;;;28.73;66.92
70488;BME280;57976;48.174;16.370;2023-06-22T09:08:54;99394.05;;;28.70;65.84
70488;BME280;57976;48.174;16.370;2023-06-22T09:11:04;99399.94;;;28.68;66.42
70488;BME280;57976;48.174;16.370;2023-06-22T09:13:12;99404.10;;;28.65;66.55
70488;BME280;57976;48.174;16.370;2023-06-22T09:15:17;99401.51;;;28.64;67.04
70488;BME280;57976;48.174;16.370;2023-06-22T09:17:34;99401.45;;;28.61;67.14
70488;BME280;57976;48.174;16.370;2023-06-22T09:19:39;99403.89;;;28.58;66.83
70488;BME280;57976;48.174;16.370;2023-06-22T09:21:44;99398.55;;;28.54;66.89
70488;BME280;57976;48.174;16.370;2023-06-22T09:23:50;99399.90;;;28.60;67.40
70488;BME280;57976;48.174;16.370;2023-06-22T09:25:57;99401.24;;;28.71;67.42
70488;BME280;57976;48.174;16.370;2023-06-22T09:28:03;99398.11;;;28.84;66.98
70488;BME280;57976;48.174;16.370;2023-06-22T09:30:09;99395.76;;;28.93;66.52
70488;BME280;57976;48.174;16.370;2023-06-22T09:32:15;99393.50;;;28.99;66.05
70488;BME280;57976;48.174;16.370;2023-06-22T09:34:20;99396.01;;;29.05;66.53
70488;BME280;57976;48.174;16.370;2023-06-22T09:36:25;99389.56;;;29.13;66.68
70488;BME280;57976;48.174;16.370;2023-06-22T09:38:30;99387.07;;;29.23;66.01
70488;BME280;57976;48.174;16.370;2023-06-22T09:40:36;99386.85;;;29.30;65.36
70488;BME280;57976;48.174;16.370;2023-06-22T09:42:42;99383.49;;;29.36;64.17
70488;BME280;57976;48.174;16.370;2023-06-22T09:44:47;99382.11;;;29.40;64.40
70488;BME280;57976;48.174;16.370;2023-06-22T09:46:52;99381.30;;;29.43;64.46
70488;BME280;57976;48.174;16.370;2023-06-22T09:48:57;99376.27;;;29.51;64.76
70488;BME280;57976;48.174;16.370;2023-06-22T09:51:02;99375.27;;;29.60;64.55
70488;BME280;57976;48.174;16.370;2023-06-22T09:53:08;99374.70;;;29.65;64.42
70488;BME280;57976;48.174;16.370;2023-06-22T09:55:13;99375.66;;;29.69;64.75
70488;BME280;57976;48.174;16.370;2023-06-22T09:57:18;99368.38;;;29.69;64.35
70488;BME280;57976;48.174;16.370;2023-06-22T09:59:23;99371.08;;;29.68;64.93
70488;BME280;57976;48.174;16.370;2023-06-22T10:01:31;99371.15;;;29.76;64.23
70488;BME280;57976;48.174;16.370;2023-06-22T10:03:36;99374.48;;;29.82;64.34
70488;BME280;57976;48.174;16.370;2023-06-22T10:05:43;99372.02;;;29.90;62.71
70488;BME280;57976;48.174;16.370;2023-06-22T10:07:51;99367.56;;;29.95;62.90
70488;BME280;57976;48.174;16.370;2023-06-22T10:09:55;99366.23;;;29.97;61.60
70488;BME280;57976;48.174;16.370;2023-06-22T10:12:00;99368.56;;;29.85;61.47
70488;BME280;57976;48.174;16.370;2023-06-22T10:14:05;99366.91;;;29.80;62.11
70488;BME280;57976;48.174;16.370;2023-06-22T10:16:13;99368.73;;;29.85;61.52
70488;BME280;57976;48.174;16.370;2023-06-22T10:18:18;99365.39;;;29.87;61.44
70488;BME280;57976;48.174;16.370;2023-06-22T10:20:23;99366.81;;;29.96;61.67
70488;BME280;57976;48.174;16.370;2023-06-22T10:22:28;99363.03;;;30.08;61.42
70488;BME280;57976;48.174;16.370;2023-06-22T10:24:33;99360.38;;;30.19;60.83
70488;BME280;57976;48.174;16.370;2023-06-22T10:26:38;99358.77;;;30.26;59.77
70488;BME280;57976;48.174;16.370;2023-06-22T10:28:46;99358.59;;;30.36;59.60
70488;BME280;57976;48.174;16.370;2023-06-22T10:30:51;99363.39;;;30.47;58.51
70488;BME280;57976;48.174;16.370;2023-06-22T10:32:56;99358.48;;;30.60;58.45
70488;BME280;57976;48.174;16.370;2023-06-22T10:35:01;99358.11;;;30.74;57.60
70488;BME280;57976;48.174;16.370;2023-06-22T10:37:07;99354.49;;;30.84;56.44
70488;BME280;57976;48.174;16.370;2023-06-22T10:39:11;99350.32;;;30.86;54.88
70488;BME280;57976;48.174;16.370;2023-06-22T10:41:16;99353.03;;;30.88;55.80
70488;BME280;57976;48.174;16.370;2023-06-22T10:43:22;99350.55;;;30.97;54.78
70488;BME280;57976;48.174;16.370;2023-06-22T10:45:27;99345.06;;;30.95;52.79
70488;BME280;57976;48.174;16.370;2023-06-22T10:47:32;99353.29;;;30.98;53.86
70488;BME280;57976;48.174;16.370;2023-06-22T10:49:37;99354.95;;;31.07;52.94
70488;BME280;57976;48.174;16.370;2023-06-22T10:51:42;99352.27;;;31.15;52.30
70488;BME280;57976;48.174;16.370;2023-06-22T10:53:47;99348.39;;;31.23;52.61
70488;BME280;57976;48.174;16.370;2023-06-22T10:55:51;99343.94;;;31.31;52.71
70488;BME280;57976;48.174;16.370;2023-06-22T10:58:00;99345.26;;;31.42;51.36
70488;BME280;57976;48.174;16.370;2023-06-22T11:00:09;99341.27;;;31.38;50.10
70488;BME280;57976;48.174;16.370;2023-06-22T11:02:13;99337.74;;;31.24;50.99